バンクーバー の空港の天気 - METARとTAF

バンクーバー国際空港 ( CYVR / YVR ) - カナダ ブリティッシュコロンビア州バンクーバー
飛行場実況気象(Metar)
観測時間12/15 23:33 PST (12/16 07:33 UTC)
風向・風速東 5m/s
視程10km以上
天気現象弱い雨
少しの雲 雲底高度 490m
全天の8割程度の雲 雲底高度 730m
全天を覆う雲 雲底高度 1130m
気温4℃
湿度87%
気圧1027hPa
METARCYVR 160733Z 10009KT 20SM -RA FEW016 BKN024 OVC037 04/02 A3032 RMK SC1SC5SC2 SLP270
過去の天気等 Google飛行場航空写真 Wunderground天気予報

過去48時間のMETAR

飛行場予報(TAF)
発表時間: 12/15 23:47 PST (12/16 07:47 UTC)
予報対象時間: 15日23時 PST ~ 17日4時 PST
風向・風速東 3m/s
視程10km以上
少しの雲 雲底高度 610m
全天を覆う雲 雲底高度 1220m
15日23時 PST ~ 16日4時 PST に一時的に
視程10km以上
天気現象弱いしゅう雨
少しの雲 雲底高度 240m
全天を覆う雲 雲底高度 610m
16日4時 PST から
風向・風速東 5m/s
視程10km以上
天気現象弱い雨
全天の4割程度の雲 雲底高度 240m
全天の8割程度の雲 雲底高度 610m
全天を覆う雲 雲底高度 1220m
16日4時 PST ~ 16日9時 PST に一時的に
視程6440m
天気現象弱い雨 もや
全天の4割程度の雲 雲底高度 120m
全天を覆う雲 雲底高度 240m
16日9時 PST から
風向・風速東 6m/s
視程10km以上
天気現象弱い雨
全天の4割程度の雲 雲底高度 240m
全天を覆う雲 雲底高度 460m
16日9時 PST ~ 16日23時 PST に一時的に
視程4830m
天気現象弱い雨 もや
全天の4割程度の雲 雲底高度 90m
全天を覆う雲 雲底高度 180m
16日23時 PST から
風向・風速東 4m/s
視程10km以上
全天の4割程度の雲 雲底高度 610m
全天の8割程度の雲 雲底高度 1830m
全天を覆う雲 雲底高度 3660m
TAF AMD CYVR 160747Z 1607/1712 08006KT P6SM FEW020 OVC040
TEMPO 1607/1612 P6SM -SHRA FEW008 OVC020
FM161200 08010KT P6SM -RA SCT008 BKN020 OVC040
TEMPO 1612/1617 4SM -RA BR SCT004 OVC008
FM161700 09012KT 6SM -RA SCT008 OVC015
TEMPO 1617/1707 3SM -RA BR SCT003 OVC006
FM170700 08008KT P6SM SCT020 BKN060 OVC120 RMK NXT FCST BY 160900Z